createdAt,value
2018-11-20T00:02:17.824Z,101820.98
2018-11-20T00:07:38.564Z,101813.70
2018-11-20T00:13:09.821Z,101815.00
2018-11-20T00:18:30.770Z,101823.55
2018-11-20T00:24:11.085Z,101816.70
2018-11-20T00:29:32.167Z,101827.88
2018-11-20T00:34:48.343Z,101822.05
2018-11-20T00:39:57.682Z,101821.17
2018-11-20T00:45:19.651Z,101815.09
2018-11-20T00:50:53.609Z,101810.81
2018-11-20T00:56:52.756Z,101800.60
2018-11-20T01:02:17.748Z,101808.39
2018-11-20T01:07:35.934Z,101801.14
2018-11-20T01:12:48.053Z,101794.02
2018-11-20T01:18:09.199Z,101782.52
2018-11-20T01:23:31.308Z,101780.89
2018-11-20T01:28:55.406Z,101785.19
2018-11-20T01:34:20.716Z,101778.33
2018-11-20T01:39:38.661Z,101774.11
2018-11-20T01:45:03.932Z,101772.05
2018-11-20T01:50:24.757Z,101754.06
2018-11-20T01:55:45.920Z,101745.44
2018-11-20T02:01:13.885Z,101735.98
2018-11-20T02:06:34.128Z,101741.28
2018-11-20T02:11:55.076Z,101746.94
2018-11-20T02:17:17.886Z,101749.05
2018-11-20T02:22:38.214Z,101747.26
2018-11-20T02:27:57.075Z,101739.95
2018-11-20T02:33:19.648Z,101733.61
2018-11-20T02:38:44.921Z,101730.16
2018-11-20T02:44:00.663Z,101724.20
2018-11-20T02:49:25.135Z,101718.61
2018-11-20T02:54:49.349Z,101707.09
2018-11-20T03:00:10.298Z,101707.47
2018-11-20T03:05:30.916Z,101701.94
2018-11-20T03:10:44.928Z,101698.02
2018-11-20T03:16:05.701Z,101668.46
2018-11-20T03:21:17.765Z,101663.75
2018-11-20T03:26:27.055Z,101655.28
2018-11-20T03:31:41.593Z,101635.63
2018-11-20T03:37:03.738Z,101632.16
2018-11-20T03:42:18.991Z,101622.33
2018-11-20T03:47:40.003Z,101627.00
2018-11-20T03:52:53.026Z,101617.61
2018-11-20T03:58:30.774Z,101612.83
2018-11-20T04:04:05.619Z,101610.69
2018-11-20T04:09:26.532Z,101613.75
2018-11-20T04:14:46.076Z,101614.96
2018-11-20T04:20:11.241Z,101603.91
2018-11-20T04:25:29.011Z,101607.42
2018-11-20T04:31:59.107Z,101616.37
2018-11-20T04:37:12.584Z,101613.42
2018-11-20T04:42:44.492Z,101617.76
2018-11-20T04:48:00.697Z,101626.77
2018-11-20T04:53:21.884Z,101627.26
2018-11-20T04:58:41.862Z,101625.05
2018-11-20T05:03:59.669Z,101626.39
2018-11-20T05:09:22.119Z,101623.86
2018-11-20T05:14:54.151Z,101645.78
2018-11-20T05:20:07.649Z,101627.33
2018-11-20T05:25:29.074Z,101624.77
2018-11-20T05:30:37.524Z,101635.59
2018-11-20T05:35:59.381Z,101620.17
2018-11-20T05:41:24.370Z,101624.05
2018-11-20T05:46:44.998Z,101628.73
2018-11-20T05:52:04.725Z,101639.81
2018-11-20T05:57:31.064Z,101661.25
2018-11-20T06:02:55.389Z,101659.55
2018-11-20T06:08:16.919Z,101670.23
2018-11-20T06:13:58.123Z,101665.09
2018-11-20T06:19:08.980Z,101654.84
2018-11-20T06:24:32.373Z,101672.76
2018-11-20T06:29:54.406Z,101674.80
2018-11-20T06:35:16.425Z,101668.36
2018-11-20T06:40:32.073Z,101662.34
2018-11-20T06:46:03.536Z,101668.34
2018-11-20T06:51:17.519Z,101674.29
2018-11-20T06:56:38.884Z,101675.55
2018-11-20T07:01:59.917Z,101660.02
2018-11-20T07:07:20.851Z,101681.22
2018-11-20T07:12:56.829Z,101686.78
2018-11-20T07:18:25.012Z,101682.41
2018-11-20T07:23:53.296Z,101676.74
2018-11-20T07:29:14.655Z,101666.02
2018-11-20T07:34:29.864Z,101672.88
2018-11-20T07:39:54.775Z,101656.61
2018-11-20T07:45:09.480Z,101645.00
2018-11-20T07:50:30.381Z,101636.02
2018-11-20T07:56:04.944Z,101639.06
2018-11-20T08:01:26.058Z,101636.82
2018-11-20T08:06:40.080Z,101641.45
2018-11-20T08:11:59.213Z,101627.30
2018-11-20T08:17:21.696Z,101616.56
2018-11-20T08:22:42.325Z,101625.62
2018-11-20T08:28:05.419Z,101628.19
2018-11-20T08:33:23.111Z,101617.20
2018-11-20T08:38:48.305Z,101616.70
2018-11-20T08:44:22.484Z,101617.53
2018-11-20T08:49:50.304Z,101613.67
2018-11-20T08:55:17.838Z,101606.72
2018-11-20T09:00:43.805Z,101610.56
2018-11-20T09:06:08.803Z,101599.77
2018-11-20T09:11:40.281Z,101593.31
2018-11-20T09:17:02.131Z,101599.84
2018-11-20T09:22:24.327Z,101586.20
2018-11-20T09:27:40.309Z,101588.34
2018-11-20T09:33:02.549Z,101589.22
2018-11-20T09:38:23.769Z,101586.52
2018-11-20T09:43:58.577Z,101575.31
2018-11-20T09:49:28.857Z,101557.67
2018-11-20T09:54:56.422Z,101542.31
2018-11-20T10:00:17.118Z,101539.24
2018-11-20T10:45:01.492Z,101506.97
2018-11-20T10:50:22.563Z,101501.36
2018-11-20T10:55:33.690Z,101503.00
2018-11-20T11:00:55.173Z,101490.21
2018-11-20T11:06:15.906Z,101501.77
2018-11-20T11:11:36.767Z,101488.08
2018-11-20T11:16:45.269Z,101498.02
2018-11-20T11:21:57.709Z,101484.21
2018-11-20T11:27:18.723Z,101489.69
2018-11-20T11:32:39.429Z,101487.52
2018-11-20T11:38:00.985Z,101484.16
2018-11-20T11:43:26.331Z,101488.37
2018-11-20T11:48:44.464Z,101472.09
2018-11-20T11:53:55.580Z,101485.91
2018-11-20T11:59:16.389Z,101470.58
2018-11-20T12:09:49.204Z,101479.47
2018-11-20T12:15:18.076Z,101462.77
2018-11-20T12:20:30.148Z,101477.25
2018-11-20T12:25:50.650Z,101461.42
2018-11-20T12:31:11.830Z,101445.17
2018-11-20T12:36:26.489Z,101444.07
2018-11-20T12:41:57.140Z,101436.02
2018-11-20T12:47:24.583Z,101432.09
2018-11-20T12:52:52.407Z,101417.50
2018-11-20T12:58:13.995Z,101412.56
2018-11-20T13:03:37.098Z,101415.14
2018-11-20T13:09:04.537Z,101407.50
2018-11-20T13:14:32.135Z,101405.05
2018-11-20T13:19:53.058Z,101406.01
2018-11-20T13:25:13.861Z,101393.08
2018-11-20T13:30:35.098Z,101386.73
2018-11-20T13:35:55.997Z,101394.92
2018-11-20T13:41:54.318Z,101388.05
2018-11-20T13:47:06.354Z,101384.16
2018-11-20T13:52:27.200Z,101382.37
2018-11-20T13:57:48.290Z,101385.48
2018-11-20T14:03:09.378Z,101373.13
2018-11-20T14:08:25.252Z,101374.07
2018-11-20T14:13:47.519Z,101360.41
2018-11-20T14:19:18.439Z,101357.95
2018-11-20T14:24:39.255Z,101341.78
2018-11-20T14:29:56.739Z,101339.83
2018-11-20T14:35:21.222Z,101313.66
2018-11-20T14:40:37.697Z,101299.95
2018-11-20T14:46:02.589Z,101299.14
2018-11-20T14:51:13.365Z,101307.27
2018-11-20T14:56:26.043Z,101309.42
2018-11-20T15:01:45.271Z,101302.73
2018-11-20T15:07:05.642Z,101306.73
2018-11-20T15:12:23.305Z,101306.94
2018-11-20T15:17:41.706Z,101309.53
2018-11-20T15:23:06.997Z,101321.92
2018-11-20T15:28:34.967Z,101324.95
2018-11-20T15:33:46.598Z,101324.00
2018-11-20T15:38:55.525Z,101307.25
2018-11-20T15:44:14.136Z,101316.28
2018-11-20T15:49:35.351Z,101315.82
2018-11-20T15:54:56.194Z,101322.80
2018-11-20T16:00:17.328Z,101330.51
2018-11-20T16:05:32.687Z,101323.20
2018-11-20T16:11:07.047Z,101326.55
2018-11-20T16:16:19.350Z,101335.89
2018-11-20T16:21:40.192Z,101339.75
2018-11-20T16:27:00.871Z,101354.77
2018-11-20T16:32:17.929Z,101361.67
2018-11-20T16:37:51.530Z,101365.44
2018-11-20T16:43:12.482Z,101376.98
2018-11-20T16:48:22.396Z,101379.50
2018-11-20T16:53:35.271Z,101383.36
2018-11-20T16:58:53.960Z,101392.28
2018-11-20T17:04:14.439Z,101389.33
2018-11-20T17:09:35.589Z,101381.64
2018-11-20T17:14:57.514Z,101390.20
2018-11-20T17:20:17.874Z,101393.21
2018-11-20T17:25:47.162Z,101402.19
2018-11-20T17:31:07.839Z,101402.98
2018-11-20T17:36:25.624Z,101399.95
2018-11-20T17:41:39.620Z,101400.30
2018-11-20T17:46:50.912Z,101397.70
2018-11-20T17:52:08.866Z,101392.97
2018-11-20T17:57:27.566Z,101397.18
2018-11-20T18:02:48.791Z,101388.72
2018-11-20T18:08:13.220Z,101394.74
2018-11-20T18:13:33.806Z,101395.56
2018-11-20T18:18:49.363Z,101399.02
2018-11-20T18:24:23.084Z,101390.86
2018-11-20T18:29:30.965Z,101396.83
2018-11-20T18:34:45.452Z,101397.70
2018-11-20T18:40:05.822Z,101395.98
2018-11-20T18:45:26.421Z,101401.48
2018-11-20T18:50:42.113Z,101399.34
2018-11-20T18:56:15.447Z,101401.53
2018-11-20T19:01:37.026Z,101403.26
2018-11-20T19:07:11.101Z,101401.56
2018-11-20T19:12:32.528Z,101401.06
2018-11-20T19:17:57.275Z,101404.44
2018-11-20T19:23:19.130Z,101406.63
2018-11-20T19:28:35.218Z,101397.18
2018-11-20T19:33:56.248Z,101386.89
2018-11-20T19:39:17.175Z,101391.59
2018-11-20T19:44:38.639Z,101394.28
2018-11-20T19:50:03.667Z,101399.84
2018-11-20T19:55:24.419Z,101398.49
2018-11-20T20:00:45.013Z,101402.35
2018-11-20T20:06:09.269Z,101396.42
2018-11-20T20:11:30.354Z,101408.10
2018-11-20T20:16:46.728Z,101418.83
2018-11-20T20:22:07.725Z,101408.10
2018-11-20T20:27:32.675Z,101419.29
2018-11-20T20:32:53.679Z,101418.41
2018-11-20T20:38:14.536Z,101433.30
2018-11-20T20:43:35.279Z,101433.61
2018-11-20T20:48:57.330Z,101442.97
2018-11-20T20:54:12.541Z,101457.11
2018-11-20T20:59:47.739Z,101463.65
2018-11-20T21:05:15.514Z,101464.17
2018-11-20T21:10:40.388Z,101468.44
2018-11-20T21:16:01.463Z,101464.66
2018-11-20T21:21:22.446Z,101472.32
2018-11-20T21:26:46.284Z,101471.78
2018-11-20T21:32:07.039Z,101469.70
2018-11-20T21:37:23.221Z,101471.86
2018-11-20T21:42:44.101Z,101473.66
2018-11-20T21:47:59.045Z,101482.69
2018-11-20T21:53:39.070Z,101480.55
2018-11-20T21:58:50.601Z,101495.98
2018-11-20T22:04:11.658Z,101487.73
2018-11-20T22:09:32.219Z,101483.80
2018-11-20T22:14:46.818Z,101492.26
2018-11-20T22:20:14.241Z,101494.39
2018-11-20T22:25:29.488Z,101494.91
2018-11-20T22:30:37.986Z,101485.95
2018-11-20T22:35:49.722Z,101493.29
2018-11-20T22:41:07.506Z,101494.08
2018-11-20T22:46:41.561Z,101492.80
2018-11-20T22:51:50.977Z,101500.16
2018-11-20T22:57:04.211Z,101508.75
2018-11-20T23:02:25.301Z,101511.40
2018-11-20T23:07:44.427Z,101513.55
2018-11-20T23:12:46.986Z,101515.73
2018-11-20T23:17:49.495Z,101520.06
2018-11-20T23:22:52.706Z,101513.16
2018-11-20T23:27:55.467Z,101511.11
2018-11-20T23:32:57.977Z,101516.30
2018-11-20T23:38:01.599Z,101511.55
2018-11-20T23:43:03.967Z,101518.80
2018-11-20T23:48:06.210Z,101517.02
2018-11-20T23:53:08.734Z,101517.08
2018-11-20T23:58:10.919Z,101512.02
